Time;durP1;ratioP1;P1;durP2;ratioP2;P2;SDS_P1;SDS_P2;PMS_P1;PMS_P2;Temp;Humidity;BMP_temperature;BMP_pressure;BME280_temperature;BME280_humidity;BME280_pressure;Samples;Min_cycle;Max_cycle;Signal;HPM_P1;HPM_P2
2023/12/25 00:02:05;;;;;;;60.83;35.95;;;18.00;99.90;;;;;;4950795;28;20043;-70
2023/12/25 00:04:30;;;;;;;65.70;37.97;;;19.10;99.90;;;;;;4949453;29;20409;-71
2023/12/25 00:06:56;;;;;;;59.97;35.25;;;18.70;99.90;;;;;;4949380;29;20082;-71
2023/12/25 00:09:21;;;;;;;64.85;36.33;;;16.90;99.90;;;;;;4949208;29;20184;-69
2023/12/25 00:11:47;;;;;;;58.53;36.50;;;17.00;99.90;;;;;;4948344;29;20571;-71
2023/12/25 00:14:12;;;;;;;59.20;33.78;;;18.00;99.90;;;;;;4948729;29;20124;-70
2023/12/25 00:16:40;;;;;;;51.10;34.13;;;17.00;99.90;;;;;;4950100;29;20047;-71
2023/12/25 00:19:09;;;;;;;53.40;34.92;;;17.20;99.90;;;;;;4949351;28;20102;-72
2023/12/25 00:21:36;;;;;;;42.78;31.73;;;17.40;99.90;;;;;;4950481;28;20156;-71
2023/12/25 00:24:01;;;;;;;52.75;32.88;;;17.30;99.90;;;;;;4949295;29;20150;-70
2023/12/25 00:26:27;;;;;;;51.47;30.75;;;18.70;99.90;;;;;;4950559;28;20126;-71
2023/12/25 00:28:52;;;;;;;46.78;32.70;;;18.30;99.90;;;;;;4950359;29;20055;-71
2023/12/25 00:31:18;;;;;;;48.42;32.75;;;18.30;99.90;;;;;;4948786;29;20549;-70
2023/12/25 00:33:44;;;;;;;45.25;33.42;;;18.50;99.90;;;;;;4949171;29;20508;-71
2023/12/25 00:36:11;;;;;;;47.35;34.42;;;17.00;99.90;;;;;;4950718;28;20055;-70
2023/12/25 00:38:36;;;;;;;48.70;33.80;;;17.60;99.90;;;;;;4948960;29;20058;-70
2023/12/25 00:41:02;;;;;;;44.95;31.73;;;17.40;99.90;;;;;;4947965;29;20043;-71
2023/12/25 00:43:28;;;;;;;45.70;32.63;;;17.40;99.90;;;;;;4948647;29;20545;-71
2023/12/25 00:45:53;;;;;;;46.35;31.70;;;18.50;99.90;;;;;;4950043;28;20129;-72
2023/12/25 00:48:19;;;;;;;44.92;30.85;;;18.20;99.90;;;;;;4950551;29;20039;-71
2023/12/25 00:50:44;;;;;;;45.33;30.45;;;18.50;99.90;;;;;;4950611;29;20043;-71
2023/12/25 00:53:10;;;;;;;37.15;29.40;;;17.70;99.90;;;;;;4949207;29;20039;-71
2023/12/25 00:55:35;;;;;;;36.58;29.80;;;18.30;99.90;;;;;;4932677;29;20607;-71
2023/12/25 00:58:01;;;;;;;38.40;28.85;;;18.00;99.90;;;;;;4949330;29;20190;-71
2023/12/25 01:00:26;;;;;;;41.45;29.90;;;18.50;99.90;;;;;;4949589;29;20050;-71
2023/12/25 01:02:52;;;;;;;35.30;29.42;;;17.10;99.90;;;;;;4948301;29;20049;-71
2023/12/25 01:05:17;;;;;;;40.22;28.20;;;17.70;99.90;;;;;;4949608;29;20050;-71
2023/12/25 01:07:43;;;;;;;37.38;28.52;;;17.30;99.90;;;;;;4948754;28;20039;-71
2023/12/25 01:10:09;;;;;;;40.72;28.58;;;18.20;99.90;;;;;;4947735;29;20050;-72
2023/12/25 01:12:35;;;;;;;36.70;28.25;;;17.10;99.90;;;;;;4948103;29;20116;-71
2023/12/25 01:15:00;;;;;;;41.38;30.27;;;18.00;99.90;;;;;;4949126;29;20412;-71
2023/12/25 01:17:26;;;;;;;41.95;29.15;;;17.60;99.90;;;;;;4949925;28;20078;-70
2023/12/25 01:19:52;;;;;;;41.83;28.98;;;18.10;99.90;;;;;;4949534;29;20047;-69
2023/12/25 01:22:18;;;;;;;42.00;28.80;;;17.80;99.90;;;;;;4948049;29;20413;-71
2023/12/25 01:24:44;;;;;;;38.88;29.38;;;17.60;99.90;;;;;;4947551;29;20050;-72
2023/12/25 01:27:09;;;;;;;44.20;30.13;;;17.30;99.90;;;;;;4948638;29;20039;-71
2023/12/25 01:29:35;;;;;;;39.80;29.20;;;18.60;99.90;;;;;;4948502;29;20051;-72
2023/12/25 01:32:01;;;;;;;45.90;30.55;;;17.10;99.90;;;;;;4947982;29;20087;-71
2023/12/25 01:34:26;;;;;;;41.22;27.95;;;18.00;99.90;;;;;;4948839;29;20047;-70
2023/12/25 01:36:52;;;;;;;43.42;28.05;;;18.10;99.90;;;;;;4947238;29;20572;-71
2023/12/25 01:39:17;;;;;;;38.65;26.05;;;18.30;99.90;;;;;;4949148;29;20118;-70
2023/12/25 01:41:43;;;;;;;40.95;27.95;;;18.00;99.90;;;;;;4935810;29;20051;-71
2023/12/25 01:44:08;;;;;;;40.65;27.63;;;17.30;99.90;;;;;;4947614;29;20043;-70
2023/12/25 01:46:35;;;;;;;43.97;28.80;;;18.00;99.90;;;;;;4947883;29;20414;-71
2023/12/25 01:49:00;;;;;;;42.10;28.70;;;17.70;99.90;;;;;;4948717;28;20065;-70
2023/12/25 01:51:26;;;;;;;41.33;31.17;;;17.00;99.90;;;;;;4947354;29;20051;-71
2023/12/25 01:53:52;;;;;;;39.90;30.20;;;17.60;99.90;;;;;;4947333;29;20079;-71
2023/12/25 01:56:18;;;;;;;42.47;30.55;;;17.90;99.90;;;;;;4947079;29;20039;-70
2023/12/25 01:58:43;;;;;;;46.15;31.42;;;17.10;99.90;;;;;;4947554;29;20102;-71
2023/12/25 02:01:09;;;;;;;46.28;32.42;;;17.80;99.90;;;;;;4947352;29;20141;-71
2023/12/25 02:03:34;;;;;;;53.55;34.53;;;17.10;99.90;;;;;;4948893;29;20062;-71
2023/12/25 02:06:01;;;;;;;48.17;34.22;;;17.30;99.90;;;;;;4931137;29;20134;-72
2023/12/25 02:08:28;;;;;;;45.92;35.65;;;17.10;99.90;;;;;;4931320;29;20051;-72
2023/12/25 02:10:54;;;;;;;49.30;35.78;;;18.00;99.90;;;;;;4948322;28;20462;-71
2023/12/25 02:13:19;;;;;;;51.83;35.33;;;17.70;99.90;;;;;;4947793;29;20102;-69
2023/12/25 02:15:46;;;;;;;54.88;37.15;;;17.10;99.90;;;;;;4948843;28;20054;-71
2023/12/25 02:18:12;;;;;;;42.15;35.58;;;17.00;99.90;;;;;;4946637;28;20077;-70
2023/12/25 02:20:38;;;;;;;50.55;36.15;;;17.90;99.90;;;;;;4948488;28;20155;-71
2023/12/25 02:23:10;;;;;;;49.58;36.95;;;17.90;99.90;;;;;;4946829;29;20236;-72
2023/12/25 02:25:45;;;;;;;56.55;36.38;;;16.90;99.90;;;;;;4947023;29;20474;-71
2023/12/25 02:28:11;;;;;;;46.22;37.40;;;18.00;99.90;;;;;;4946638;29;20094;-72
2023/12/25 02:30:36;;;;;;;54.85;35.67;;;17.30;99.90;;;;;;4947982;29;20071;-71
2023/12/25 02:33:04;;;;;;;50.63;34.78;;;17.00;99.90;;;;;;4947976;29;20034;-71
2023/12/25 02:35:33;;;;;;;42.88;33.60;;;17.10;99.90;;;;;;4946212;29;20050;-72
2023/12/25 02:37:59;;;;;;;42.35;33.33;;;18.10;99.90;;;;;;4947147;29;20122;-70
2023/12/25 02:40:24;;;;;;;46.65;34.65;;;16.90;99.90;;;;;;4947972;29;20390;-71
2023/12/25 02:42:50;;;;;;;45.03;34.35;;;18.10;99.90;;;;;;4946609;29;20493;-72
2023/12/25 02:45:15;;;;;;;50.95;35.55;;;17.10;99.90;;;;;;4947701;29;20047;-72
2023/12/25 02:47:41;;;;;;;46.95;34.00;;;17.90;99.90;;;;;;4946467;29;20086;-72
2023/12/25 02:50:07;;;;;;;42.95;33.80;;;17.80;99.90;;;;;;4947825;28;20404;-70
2023/12/25 02:52:32;;;;;;;46.40;34.35;;;17.00;99.90;;;;;;4946775;29;20217;-71
2023/12/25 02:54:58;;;;;;;46.97;32.97;;;17.90;99.90;;;;;;4948321;29;20054;-70
2023/12/25 02:57:23;;;;;;;46.13;34.10;;;17.20;99.90;;;;;;4947970;29;20075;-71
2023/12/25 02:59:49;;;;;;;48.83;34.17;;;17.60;99.90;;;;;;4946128;29;20043;-71
2023/12/25 03:02:14;;;;;;;44.25;33.20;;;17.50;99.90;;;;;;4945728;29;20382;-70
2023/12/25 03:04:40;;;;;;;42.13;32.03;;;17.70;99.90;;;;;;4945436;29;20467;-72
2023/12/25 03:07:06;;;;;;;51.67;32.63;;;17.50;99.90;;;;;;4947758;29;20054;-71
2023/12/25 03:09:31;;;;;;;43.95;31.65;;;17.00;99.90;;;;;;4947236;29;20394;-71
2023/12/25 03:11:57;;;;;;;41.60;31.13;;;18.20;99.90;;;;;;4947918;28;20158;-71
2023/12/25 03:14:22;;;;;;;45.42;31.50;;;18.50;99.90;;;;;;4946224;29;20075;-71
2023/12/25 03:16:48;;;;;;;42.95;31.13;;;17.70;99.90;;;;;;4947642;29;20043;-70
2023/12/25 03:19:13;;;;;;;45.47;30.70;;;17.20;99.90;;;;;;4947005;28;20059;-72
2023/12/25 03:21:39;;;;;;;46.95;32.35;;;18.10;99.90;;;;;;4945635;29;20051;-71
2023/12/25 03:24:05;;;;;;;49.55;33.15;;;17.00;99.90;;;;;;4946116;29;20085;-71
2023/12/25 03:26:32;;;;;;;51.38;32.70;;;17.70;99.90;;;;;;4945991;29;20047;-71
2023/12/25 03:28:57;;;;;;;53.95;34.58;;;17.50;99.90;;;;;;4947488;28;20413;-70
2023/12/25 03:31:23;;;;;;;47.88;33.97;;;16.90;99.90;;;;;;4947032;28;20048;-71
2023/12/25 03:33:48;;;;;;;47.55;35.72;;;17.30;99.90;;;;;;4952325;28;20043;-72
2023/12/25 03:36:14;;;;;;;53.88;35.10;;;18.00;99.90;;;;;;4951931;28;20105;-70
2023/12/25 03:38:39;;;;;;;51.90;36.88;;;17.00;99.90;;;;;;4952180;29;20098;-70
2023/12/25 03:41:07;;;;;;;51.92;35.70;;;16.90;99.90;;;;;;4935862;29;20071;-71
2023/12/25 03:43:33;;;;;;;51.78;34.35;;;18.00;99.90;;;;;;4938888;29;20050;-71
2023/12/25 03:45:58;;;;;;;46.20;32.75;;;17.10;99.90;;;;;;4946402;29;20046;-70
2023/12/25 03:48:24;;;;;;;43.33;31.95;;;17.20;99.90;;;;;;4953970;28;20043;-72
2023/12/25 03:50:50;;;;;;;46.00;33.58;;;18.00;99.90;;;;;;4951575;29;20094;-70
2023/12/25 03:53:15;;;;;;;44.28;32.78;;;17.30;99.90;;;;;;4951860;28;20042;-71
2023/12/25 03:55:41;;;;;;;48.55;33.45;;;18.10;99.90;;;;;;4952031;28;20047;-71
2023/12/25 03:58:06;;;;;;;48.10;34.65;;;16.80;99.90;;;;;;4952165;29;20071;-71
2023/12/25 04:00:32;;;;;;;49.70;32.17;;;17.10;99.90;;;;;;4951917;28;20421;-71
2023/12/25 04:02:57;;;;;;;50.25;31.48;;;17.90;99.90;;;;;;4954244;29;20451;-71
2023/12/25 04:05:26;;;;;;;50.25;33.00;;;16.80;99.90;;;;;;4952010;29;20579;-72
2023/12/25 04:07:51;;;;;;;51.15;32.80;;;17.60;99.90;;;;;;4935762;29;20046;-71
2023/12/25 04:10:17;;;;;;;52.40;33.67;;;16.90;99.90;;;;;;4951671;28;20387;-71
2023/12/25 04:12:43;;;;;;;49.13;32.83;;;16.90;99.90;;;;;;4952334;29;20055;-71
2023/12/25 04:15:09;;;;;;;46.42;32.55;;;18.00;99.90;;;;;;4941975;29;20102;-70
2023/12/25 04:17:35;;;;;;;44.72;30.02;;;17.70;99.90;;;;;;4937078;28;20513;-71
2023/12/25 04:20:00;;;;;;;42.67;29.55;;;17.30;99.90;;;;;;4953424;28;20049;-71
2023/12/25 04:22:26;;;;;;;41.95;29.08;;;17.00;99.90;;;;;;4953908;29;20035;-70
2023/12/25 04:24:52;;;;;;;42.35;28.92;;;18.00;99.90;;;;;;4953474;28;20050;-71
2023/12/25 04:27:18;;;;;;;46.80;30.13;;;17.40;99.90;;;;;;4952183;28;20138;-71
2023/12/25 04:29:44;;;;;;;46.08;29.88;;;17.40;99.90;;;;;;4952849;28;20094;-71
2023/12/25 04:32:10;;;;;;;48.20;31.35;;;18.40;99.90;;;;;;4953151;28;20043;-71
2023/12/25 04:34:36;;;;;;;41.42;29.85;;;17.10;99.90;;;;;;4953210;28;20046;-71
2023/12/25 04:37:01;;;;;;;41.70;30.27;;;18.20;99.90;;;;;;4951202;29;20084;-72
2023/12/25 04:39:27;;;;;;;48.72;30.20;;;17.40;99.90;;;;;;4951623;29;20073;-70
2023/12/25 04:41:52;;;;;;;41.17;28.33;;;18.20;99.90;;;;;;4951438;28;20050;-70
2023/12/25 04:44:18;;;;;;;50.92;31.60;;;18.10;99.90;;;;;;4950746;28;20367;-71
2023/12/25 04:46:44;;;;;;;51.42;31.58;;;17.70;99.90;;;;;;4948790;29;20070;-72
2023/12/25 04:49:09;;;;;;;47.38;31.52;;;17.20;99.90;;;;;;4950035;29;20043;-71
2023/12/25 04:51:35;;;;;;;52.13;32.92;;;17.90;99.90;;;;;;4948258;29;20054;-71
2023/12/25 04:54:03;;;;;;;40.50;29.63;;;17.20;99.90;;;;;;4948906;29;20425;-70
2023/12/25 04:56:29;;;;;;;48.13;31.13;;;17.70;99.90;;;;;;4947507;29;21173;-70
2023/12/25 04:58:54;;;;;;;43.55;30.70;;;17.50;99.90;;;;;;4948695;29;20497;-71
2023/12/25 05:01:20;;;;;;;46.33;31.42;;;17.00;99.90;;;;;;4947782;29;20739;-71
2023/12/25 05:03:45;;;;;;;50.88;32.92;;;17.00;99.90;;;;;;4950036;29;20050;-71
2023/12/25 05:06:11;;;;;;;48.00;30.83;;;17.10;99.90;;;;;;4948691;29;20617;-71
2023/12/25 05:08:36;;;;;;;46.92;31.95;;;17.10;99.90;;;;;;4948261;29;20466;-71
2023/12/25 05:11:03;;;;;;;45.70;31.60;;;16.90;99.90;;;;;;4948147;29;20049;-71
2023/12/25 05:13:30;;;;;;;51.72;34.22;;;17.80;99.90;;;;;;4948534;29;20134;-71
2023/12/25 05:15:55;;;;;;;47.90;33.60;;;17.30;99.90;;;;;;4949127;28;20620;-71
2023/12/25 05:18:21;;;;;;;50.28;33.40;;;16.70;99.90;;;;;;4948075;28;20095;-71
2023/12/25 05:20:46;;;;;;;53.67;35.40;;;17.20;99.90;;;;;;4949062;29;20051;-71
2023/12/25 05:23:12;;;;;;;47.80;32.53;;;16.80;99.90;;;;;;4949787;29;20405;-70
2023/12/25 05:25:37;;;;;;;50.35;33.30;;;17.40;99.90;;;;;;4949738;29;20055;-71
2023/12/25 05:28:03;;;;;;;50.25;33.42;;;17.90;99.90;;;;;;4949366;29;20242;-72
2023/12/25 05:30:29;;;;;;;43.75;31.55;;;16.70;99.90;;;;;;4949167;28;20047;-71
2023/12/25 05:32:54;;;;;;;49.10;32.53;;;17.80;99.90;;;;;;4932032;29;20055;-70
2023/12/25 05:35:20;;;;;;;41.40;31.17;;;17.70;99.90;;;;;;4947867;29;20051;-71
2023/12/25 05:37:46;;;;;;;47.92;33.17;;;17.50;99.90;;;;;;4947494;29;20078;-70
2023/12/25 05:40:12;;;;;;;45.28;31.25;;;17.90;99.90;;;;;;4948957;28;20413;-70
2023/12/25 05:42:37;;;;;;;41.00;30.30;;;16.70;99.90;;;;;;4947360;29;20462;-71
2023/12/25 05:45:03;;;;;;;57.10;32.47;;;16.80;99.90;;;;;;4947540;29;20051;-69
2023/12/25 05:47:28;;;;;;;46.85;31.83;;;17.30;99.90;;;;;;4949418;28;20047;-71
2023/12/25 05:49:54;;;;;;;54.75;33.10;;;16.90;99.90;;;;;;4946976;29;20102;-70
2023/12/25 05:52:20;;;;;;;49.35;33.20;;;17.40;99.90;;;;;;4948578;28;20430;-70
2023/12/25 05:54:45;;;;;;;49.38;33.50;;;17.80;99.90;;;;;;4946478;28;20078;-71
2023/12/25 05:57:11;;;;;;;48.97;32.00;;;16.70;99.90;;;;;;4948999;28;20042;-70
2023/12/25 05:59:37;;;;;;;41.50;33.17;;;17.60;99.90;;;;;;4948912;29;20402;-71
2023/12/25 06:02:04;;;;;;;49.25;33.83;;;17.00;99.90;;;;;;4947783;29;20051;-70
2023/12/25 06:04:29;;;;;;;47.92;32.55;;;17.00;99.90;;;;;;4949342;29;20039;-71
2023/12/25 06:06:55;;;;;;;42.28;33.20;;;16.70;99.90;;;;;;4941698;29;20050;-71
2023/12/25 06:09:21;;;;;;;51.25;33.58;;;17.70;99.90;;;;;;4947014;29;20560;-71
2023/12/25 06:11:47;;;;;;;46.25;32.08;;;17.40;99.90;;;;;;4948751;28;20501;-70
2023/12/25 06:14:12;;;;;;;45.92;33.35;;;17.40;99.90;;;;;;4948987;29;20058;-70
2023/12/25 06:16:38;;;;;;;49.17;32.20;;;16.70;99.90;;;;;;4948590;28;20082;-71
2023/12/25 06:19:03;;;;;;;47.38;32.47;;;17.60;99.90;;;;;;4947007;28;20122;-70
2023/12/25 06:21:29;;;;;;;46.25;32.60;;;17.60;99.90;;;;;;4947397;29;20501;-70
2023/12/25 06:23:56;;;;;;;53.20;32.05;;;17.50;99.90;;;;;;4945825;29;20478;-71
2023/12/25 06:26:22;;;;;;;52.22;31.48;;;17.40;99.90;;;;;;4946873;29;20086;-70
2023/12/25 06:28:48;;;;;;;49.03;31.63;;;17.60;99.90;;;;;;4948115;29;20070;-70
2023/12/25 06:31:14;;;;;;;46.47;31.25;;;16.60;99.90;;;;;;4943896;28;20075;-69
2023/12/25 06:33:40;;;;;;;56.10;32.67;;;17.30;99.90;;;;;;4946691;29;20051;-70
2023/12/25 06:36:06;;;;;;;41.97;31.30;;;17.70;99.90;;;;;;4947175;28;20047;-71
2023/12/25 06:38:31;;;;;;;44.63;32.50;;;16.80;99.90;;;;;;4930304;29;20053;-71
2023/12/25 06:40:57;;;;;;;46.55;32.25;;;17.70;99.90;;;;;;4947155;29;20074;-71
2023/12/25 06:43:22;;;;;;;45.30;31.38;;;16.60;99.90;;;;;;4947396;29;20406;-71
2023/12/25 06:45:48;;;;;;;40.80;29.83;;;17.20;99.90;;;;;;4945855;29;20043;-71
2023/12/25 06:48:13;;;;;;;47.15;29.70;;;17.70;99.90;;;;;;4933574;29;20049;-71
2023/12/25 06:50:40;;;;;;;46.17;31.67;;;16.50;99.90;;;;;;4935590;29;20719;-71
2023/12/25 06:53:07;;;;;;;47.58;30.88;;;16.70;99.90;;;;;;4946439;29;20505;-71
2023/12/25 06:55:32;;;;;;;39.80;29.40;;;16.70;99.90;;;;;;4947789;29;20133;-69
2023/12/25 06:58:01;;;;;;;43.65;29.73;;;16.60;99.90;;;;;;4945892;28;20138;-71
2023/12/25 07:00:26;;;;;;;40.85;29.52;;;16.90;99.90;;;;;;4947717;29;20047;-72
2023/12/25 07:02:52;;;;;;;41.17;29.13;;;17.50;99.90;;;;;;4945890;29;20035;-69
2023/12/25 07:05:17;;;;;;;47.28;29.80;;;16.60;99.90;;;;;;4945705;28;20074;-71
2023/12/25 07:07:43;;;;;;;46.30;29.63;;;17.80;99.90;;;;;;4945864;29;20235;-71
2023/12/25 07:10:09;;;;;;;41.42;28.50;;;16.50;99.90;;;;;;4947768;28;20068;-70
2023/12/25 07:12:34;;;;;;;44.95;30.33;;;17.50;99.90;;;;;;4945741;29;20511;-71
2023/12/25 07:15:00;;;;;;;44.75;30.45;;;16.80;99.90;;;;;;4944301;29;20387;-71
2023/12/25 07:17:25;;;;;;;45.90;29.60;;;16.70;99.90;;;;;;4938376;29;20090;-70
2023/12/25 07:19:51;;;;;;;49.47;31.13;;;17.30;99.90;;;;;;4944304;29;20082;-70
2023/12/25 07:22:17;;;;;;;46.25;31.30;;;16.60;99.90;;;;;;4945760;29;20070;-70
2023/12/25 07:24:43;;;;;;;52.42;32.08;;;17.30;99.90;;;;;;4946089;28;20071;-71
2023/12/25 07:27:09;;;;;;;41.85;30.70;;;17.60;99.90;;;;;;4946352;29;20458;-70
2023/12/25 07:29:34;;;;;;;52.47;31.50;;;16.90;99.90;;;;;;4947113;29;20101;-71
2023/12/25 07:32:00;;;;;;;51.58;32.35;;;17.60;99.90;;;;;;4947907;28;20092;-71
2023/12/25 07:34:25;;;;;;;47.17;31.30;;;16.70;99.90;;;;;;4946347;29;20050;-70
2023/12/25 07:36:51;;;;;;;49.33;31.30;;;17.10;99.90;;;;;;4944734;29;20434;-70
2023/12/25 07:39:16;;;;;;;51.40;31.05;;;17.40;99.90;;;;;;4945451;29;20598;-71
2023/12/25 07:41:45;;;;;;;47.35;31.55;;;17.50;99.90;;;;;;4944871;29;20516;-71
2023/12/25 07:44:12;;;;;;;40.40;28.20;;;16.80;99.90;;;;;;4945420;29;20082;-71
2023/12/25 07:46:38;;;;;;;37.33;26.30;;;17.40;99.90;;;;;;4929900;29;20086;-70
2023/12/25 07:49:03;;;;;;;38.30;27.92;;;16.40;99.90;;;;;;4935784;28;20489;-70
2023/12/25 07:51:29;;;;;;;38.25;29.85;;;16.00;99.90;;;;;;4946031;29;20122;-71
2023/12/25 07:53:54;;;;;;;39.17;30.02;;;17.10;99.90;;;;;;4943772;29;20079;-69
2023/12/25 07:56:20;;;;;;;43.20;28.98;;;17.10;99.90;;;;;;4946332;28;20066;-73
2023/12/25 07:58:45;;;;;;;45.03;30.98;;;16.90;99.90;;;;;;4944706;29;20165;-73
2023/12/25 08:01:12;;;;;;;41.42;31.35;;;16.90;99.90;;;;;;4945162;29;20040;-74
2023/12/25 08:03:38;;;;;;;40.97;30.20;;;16.90;99.90;;;;;;4940039;29;20142;-68
2023/12/25 08:06:05;;;;;;;42.78;32.97;;;16.40;99.90;;;;;;4947300;28;20059;-68
2023/12/25 08:08:30;;;;;;;44.05;32.85;;;16.00;99.90;;;;;;4944259;29;20047;-71
2023/12/25 08:10:56;;;;;;;57.20;34.25;;;16.80;99.90;;;;;;4945930;29;20559;-70
2023/12/25 08:13:22;;;;;;;52.47;32.75;;;16.30;99.90;;;;;;4927414;29;20528;-70
2023/12/25 08:15:47;;;;;;;54.55;32.67;;;16.90;99.90;;;;;;4936329;28;20111;-71
2023/12/25 08:18:13;;;;;;;48.65;32.33;;;15.90;99.90;;;;;;4944084;28;20125;-70
2023/12/25 08:20:38;;;;;;;54.22;34.72;;;16.70;99.90;;;;;;4948216;29;20039;-69
2023/12/25 08:23:04;;;;;;;54.42;34.92;;;15.90;99.90;;;;;;4949951;29;20035;-71
2023/12/25 08:25:30;;;;;;;51.80;34.53;;;15.90;99.90;;;;;;4945128;29;20047;-71
2023/12/25 08:27:55;;;;;;;51.63;34.67;;;16.80;99.90;;;;;;4948027;28;20524;-70
2023/12/25 08:30:21;;;;;;;53.10;34.88;;;16.00;99.90;;;;;;4948169;28;20043;-71
2023/12/25 08:32:47;;;;;;;55.92;35.25;;;15.90;99.90;;;;;;4947301;29;20051;-70
2023/12/25 08:35:12;;;;;;;56.60;33.55;;;15.60;99.90;;;;;;4949116;29;20101;-70
2023/12/25 08:37:39;;;;;;;51.67;33.50;;;16.50;99.90;;;;;;4947898;28;20090;-70
2023/12/25 08:40:05;;;;;;;51.75;33.00;;;15.70;99.90;;;;;;4947173;29;20441;-70
2023/12/25 08:42:31;;;;;;;53.85;35.03;;;16.10;99.90;;;;;;4947493;28;20041;-71
2023/12/25 08:44:57;;;;;;;44.83;34.67;;;16.60;99.90;;;;;;4949578;29;20039;-71
2023/12/25 08:47:23;;;;;;;50.95;35.05;;;15.60;99.90;;;;;;4930006;29;20050;-70
2023/12/25 08:49:49;;;;;;;54.03;36.80;;;16.70;99.90;;;;;;4945372;29;20051;-67
2023/12/25 08:52:14;;;;;;;49.65;34.45;;;15.70;99.90;;;;;;4947770;29;20114;-70
2023/12/25 08:54:40;;;;;;;55.90;34.08;;;15.60;99.90;;;;;;4947863;29;20078;-69
2023/12/25 08:57:05;;;;;;;53.55;33.50;;;15.60;99.90;;;;;;4948413;29;20073;-71
2023/12/25 08:59:31;;;;;;;51.25;34.72;;;15.90;99.90;;;;;;4947837;29;20450;-70
2023/12/25 09:01:57;;;;;;;47.78;32.45;;;15.60;99.90;;;;;;4948878;28;20046;-70
2023/12/25 09:04:22;;;;;;;48.10;35.22;;;16.00;99.90;;;;;;4947888;29;21021;-70
2023/12/25 09:06:48;;;;;;;50.05;34.72;;;16.70;99.90;;;;;;4946939;28;20043;-70
2023/12/25 09:09:13;;;;;;;52.70;34.97;;;16.20;99.90;;;;;;4945273;28;20039;-70
2023/12/25 09:11:39;;;;;;;46.67;32.97;;;16.80;99.90;;;;;;4947898;29;20538;-71
2023/12/25 09:14:05;;;;;;;52.03;33.47;;;15.60;99.90;;;;;;4947749;29;20043;-71
2023/12/25 09:16:30;;;;;;;48.60;33.38;;;16.90;99.90;;;;;;4946240;29;20048;-71
2023/12/25 09:18:56;;;;;;;52.72;34.30;;;16.00;99.90;;;;;;4946207;29;20059;-71
2023/12/25 09:21:22;;;;;;;54.33;33.65;;;17.60;99.90;;;;;;4947200;29;20776;-71
2023/12/25 09:23:48;;;;;;;48.72;35.33;;;17.00;99.90;;;;;;4946898;29;20039;-70
2023/12/25 09:26:20;;;;;;;54.60;36.50;;;15.80;99.90;;;;;;4944768;29;20043;-70
2023/12/25 09:28:46;;;;;;;55.17;34.10;;;16.00;99.90;;;;;;4947673;28;20046;-71
2023/12/25 09:31:13;;;;;;;47.58;34.38;;;15.80;99.90;;;;;;4963904;28;20039;-71
2023/12/25 09:33:40;;;;;;;47.17;32.78;;;16.50;99.90;;;;;;4946644;29;20047;-70
2023/12/25 09:36:08;;;;;;;50.53;34.72;;;17.00;99.90;;;;;;4948551;28;20054;-70
2023/12/25 09:38:34;;;;;;;51.13;33.20;;;15.90;99.90;;;;;;4948832;29;20511;-70
2023/12/25 09:41:00;;;;;;;57.00;34.75;;;16.00;99.90;;;;;;4946934;29;20043;-71
2023/12/25 09:43:27;;;;;;;48.72;34.45;;;16.40;99.90;;;;;;4946738;29;20828;-71
2023/12/25 09:45:54;;;;;;;52.90;33.95;;;16.50;99.90;;;;;;4946797;29;20086;-70
2023/12/25 09:48:19;;;;;;;49.90;34.17;;;17.30;99.90;;;;;;4963180;28;20043;-70
2023/12/25 09:50:45;;;;;;;49.45;33.92;;;16.60;99.90;;;;;;4941835;29;20521;-70
2023/12/25 09:53:11;;;;;;;56.72;34.65;;;16.10;99.90;;;;;;4947864;29;20074;-71
2023/12/25 09:55:37;;;;;;;56.30;35.05;;;17.30;99.90;;;;;;4946563;29;20554;-69
2023/12/25 09:58:06;;;;;;;55.47;34.40;;;17.10;99.90;;;;;;4945139;29;20050;-69
2023/12/25 10:00:32;;;;;;;53.50;36.00;;;17.40;99.90;;;;;;4944558;29;20047;-70
2023/12/25 10:02:58;;;;;;;57.40;36.15;;;17.80;99.90;;;;;;4946917;28;20031;-75
2023/12/25 10:05:24;;;;;;;49.85;34.15;;;16.50;99.90;;;;;;4946750;29;20043;-74
2023/12/25 10:07:50;;;;;;;55.35;34.95;;;16.40;99.90;;;;;;4945395;29;20110;-74
2023/12/25 10:10:15;;;;;;;47.20;33.88;;;16.50;99.90;;;;;;4945853;29;20134;-74
2023/12/25 10:12:44;;;;;;;49.88;34.17;;;16.30;99.90;;;;;;4945966;29;20057;-70
2023/12/25 10:15:13;;;;;;;52.47;32.75;;;17.60;99.90;;;;;;4947507;29;20083;-70
2023/12/25 10:17:39;;;;;;;62.42;34.78;;;17.60;99.90;;;;;;4946546;28;20089;-70
2023/12/25 10:20:08;;;;;;;62.40;33.78;;;16.40;99.90;;;;;;4947183;29;20054;-69
2023/12/25 10:22:35;;;;;;;54.53;33.85;;;16.30;99.90;;;;;;4947324;29;20051;-70
2023/12/25 10:25:06;;;;;;;48.50;33.30;;;16.40;99.90;;;;;;4947741;29;20051;-70
2023/12/25 10:27:39;;;;;;;50.58;33.67;;;17.50;99.90;;;;;;4947475;29;20083;-71
2023/12/25 10:30:26;;;;;;;51.15;32.97;;;17.30;99.90;;;;;;4949166;29;20114;-70
2023/12/25 10:33:13;;;;;;;55.55;33.58;;;17.60;99.90;;;;;;4942624;29;20047;-70
2023/12/25 10:35:42;;;;;;;53.45;34.50;;;17.00;99.90;;;;;;4948530;28;20047;-71
2023/12/25 10:38:08;;;;;;;57.10;35.17;;;17.20;99.90;;;;;;4948444;28;20053;-70
2023/12/25 10:40:36;;;;;;;55.00;33.95;;;16.50;99.90;;;;;;4948450;28;20043;-70
2023/12/25 10:43:01;;;;;;;49.92;32.88;;;17.50;99.90;;;;;;4947868;28;20058;-71
2023/12/25 10:45:30;;;;;;;53.08;33.75;;;17.50;99.90;;;;;;4948213;29;20043;-70
2023/12/25 10:48:02;;;;;;;46.60;34.03;;;17.50;99.90;;;;;;4946697;29;20046;-70
2023/12/25 10:50:33;;;;;;;53.05;33.70;;;16.40;99.90;;;;;;4946790;29;20050;-69
2023/12/25 10:53:01;;;;;;;50.20;33.38;;;16.30;99.90;;;;;;4946488;29;20086;-70
2023/12/25 10:55:42;;;;;;;58.80;32.60;;;17.70;99.90;;;;;;4948089;28;20054;-70
2023/12/25 10:58:11;;;;;;;47.58;32.78;;;16.30;99.90;;;;;;4947247;29;20047;-71
2023/12/25 11:00:53;;;;;;;47.67;32.97;;;17.80;99.90;;;;;;4948388;28;20043;-70
2023/12/25 11:03:19;;;;;;;50.92;29.83;;;17.60;99.90;;;;;;4948048;28;20049;-69
2023/12/25 11:05:45;;;;;;;51.38;30.95;;;17.20;99.90;;;;;;4947902;28;20521;-70
2023/12/25 11:08:13;;;;;;;48.13;30.95;;;16.50;99.90;;;;;;4948001;28;20122;-70
2023/12/25 11:10:39;;;;;;;52.72;30.17;;;17.70;99.90;;;;;;4962554;28;20136;-70
2023/12/25 11:13:06;;;;;;;48.45;30.33;;;17.20;99.90;;;;;;4948074;28;20047;-71
2023/12/25 11:15:32;;;;;;;47.88;29.23;;;17.50;99.90;;;;;;4948488;28;20734;-71
2023/12/25 11:17:59;;;;;;;56.00;27.88;;;16.30;99.90;;;;;;4946709;28;20102;-71
2023/12/25 11:20:25;;;;;;;48.03;28.00;;;16.20;99.90;;;;;;4946695;29;20176;-71
2023/12/25 11:22:55;;;;;;;37.53;24.17;;;16.30;99.90;;;;;;4946385;29;20059;-70
2023/12/25 11:25:21;;;;;;;55.78;26.10;;;17.80;99.90;;;;;;4947727;28;20047;-70
2023/12/25 11:27:52;;;;;;;52.28;28.02;;;17.40;99.90;;;;;;4946169;29;20050;-69
2023/12/25 11:30:19;;;;;;;50.90;24.85;;;16.30;99.90;;;;;;4947905;28;20118;-71
2023/12/25 11:32:49;;;;;;;56.45;27.58;;;17.30;99.90;;;;;;4948016;28;20055;-70
2023/12/25 11:35:15;;;;;;;56.00;28.45;;;17.40;99.90;;;;;;4948026;28;20057;-70
2023/12/25 11:37:41;;;;;;;59.28;27.17;;;16.70;99.90;;;;;;4947575;29;20054;-70
2023/12/25 11:40:08;;;;;;;48.78;26.52;;;16.20;99.90;;;;;;4947697;29;20070;-70
2023/12/25 11:42:34;;;;;;;56.60;27.35;;;16.20;99.90;;;;;;4947216;29;20043;-70
2023/12/25 11:45:03;;;;;;;44.75;25.10;;;16.30;99.90;;;;;;4946222;29;20059;-70
2023/12/25 11:47:39;;;;;;;51.25;24.25;;;16.20;99.90;;;;;;4946729;29;20182;-70
2023/12/25 11:50:05;;;;;;;43.80;23.97;;;17.00;99.90;;;;;;4947376;29;20137;-70
2023/12/25 11:52:46;;;;;;;39.80;24.20;;;17.70;99.90;;;;;;4946592;28;20050;-70
2023/12/25 11:55:23;;;;;;;39.30;25.30;;;17.00;99.90;;;;;;4934194;29;20054;-70
2023/12/25 11:57:49;;;;;;;45.85;28.55;;;17.00;99.90;;;;;;4950740;29;20118;-70
2023/12/25 12:00:26;;;;;;;41.10;26.17;;;16.60;99.90;;;;;;4950049;29;20054;-69
2023/12/25 12:02:52;;;;;;;44.92;25.42;;;16.80;99.90;;;;;;4951346;28;20053;-70
2023/12/25 12:05:18;;;;;;;42.70;25.20;;;17.80;99.90;;;;;;4950086;29;20051;-70
2023/12/25 12:07:44;;;;;;;36.30;25.30;;;17.50;99.90;;;;;;4951583;28;20113;-71
2023/12/25 12:10:12;;;;;;;42.45;27.20;;;17.30;99.90;;;;;;4951811;28;20093;-69
2023/12/25 12:12:38;;;;;;;40.70;29.50;;;17.40;99.90;;;;;;4949947;29;20058;-70
2023/12/25 12:15:05;;;;;;;48.47;29.75;;;17.60;99.90;;;;;;4949479;29;20050;-71
2023/12/25 12:17:31;;;;;;;50.45;29.88;;;17.80;99.90;;;;;;4949153;28;20113;-70
2023/12/25 12:19:58;;;;;;;51.30;29.58;;;17.60;99.90;;;;;;4949182;29;20051;-70
2023/12/25 12:22:24;;;;;;;50.10;28.33;;;17.40;99.90;;;;;;4949296;29;20043;-70
2023/12/25 12:24:50;;;;;;;50.38;25.60;;;16.50;99.90;;;;;;4949238;29;20410;-70